sensor_id;sensor_type;location;lat;lon;timestamp;P1;durP1;ratioP1;P2;durP2;ratioP2
72904;SDS011;61048;52.162;4.516;2023-09-19T00:02:20;3.72;;;0.82;;
72904;SDS011;61048;52.162;4.516;2023-09-19T00:04:47;3.63;;;0.70;;
72904;SDS011;61048;52.162;4.516;2023-09-19T00:07:15;3.00;;;0.90;;
72904;SDS011;61048;52.162;4.516;2023-09-19T00:09:42;3.92;;;1.10;;
72904;SDS011;61048;52.162;4.516;2023-09-19T00:12:09;3.10;;;0.77;;
72904;SDS011;61048;52.162;4.516;2023-09-19T00:14:38;3.33;;;0.60;;
72904;SDS011;61048;52.162;4.516;2023-09-19T00:17:06;3.38;;;0.80;;
72904;SDS011;61048;52.162;4.516;2023-09-19T00:19:33;3.00;;;1.08;;
72904;SDS011;61048;52.162;4.516;2023-09-19T00:22:00;1.52;;;0.28;;
72904;SDS011;61048;52.162;4.516;2023-09-19T00:24:28;4.38;;;1.08;;
72904;SDS011;61048;52.162;4.516;2023-09-19T00:26:55;2.22;;;0.90;;
72904;SDS011;61048;52.162;4.516;2023-09-19T00:29:24;4.00;;;0.88;;
72904;SDS011;61048;52.162;4.516;2023-09-19T00:31:54;2.08;;;0.70;;
72904;SDS011;61048;52.162;4.516;2023-09-19T00:34:23;2.47;;;0.90;;
72904;SDS011;61048;52.162;4.516;2023-09-19T00:36:50;3.20;;;0.85;;
72904;SDS011;61048;52.162;4.516;2023-09-19T00:39:19;4.10;;;0.77;;
72904;SDS011;61048;52.162;4.516;2023-09-19T00:41:47;2.92;;;0.63;;
72904;SDS011;61048;52.162;4.516;2023-09-19T00:44:14;2.92;;;0.85;;
72904;SDS011;61048;52.162;4.516;2023-09-19T00:46:42;3.22;;;1.10;;
72904;SDS011;61048;52.162;4.516;2023-09-19T00:49:12;2.20;;;0.85;;
72904;SDS011;61048;52.162;4.516;2023-09-19T00:51:41;4.55;;;1.02;;
72904;SDS011;61048;52.162;4.516;2023-09-19T00:56:43;1.55;;;0.57;;
72904;SDS011;61048;52.162;4.516;2023-09-19T00:59:10;2.65;;;1.00;;
72904;SDS011;61048;52.162;4.516;2023-09-19T01:01:37;1.80;;;0.32;;
72904;SDS011;61048;52.162;4.516;2023-09-19T01:04:05;1.85;;;0.73;;
72904;SDS011;61048;52.162;4.516;2023-09-19T01:06:33;3.38;;;0.85;;
72904;SDS011;61048;52.162;4.516;2023-09-19T01:09:03;3.45;;;1.02;;
72904;SDS011;61048;52.162;4.516;2023-09-19T01:11:32;1.98;;;0.60;;
72904;SDS011;61048;52.162;4.516;2023-09-19T01:14:09;2.85;;;0.82;;
72904;SDS011;61048;52.162;4.516;2023-09-19T01:16:47;1.95;;;0.38;;
72904;SDS011;61048;52.162;4.516;2023-09-19T01:22:10;3.22;;;0.80;;
72904;SDS011;61048;52.162;4.516;2023-09-19T01:27:53;1.98;;;0.30;;
72904;SDS011;61048;52.162;4.516;2023-09-19T01:30:35;3.47;;;0.70;;
72904;SDS011;61048;52.162;4.516;2023-09-19T01:33:08;3.92;;;0.90;;
72904;SDS011;61048;52.162;4.516;2023-09-19T01:35:37;5.45;;;1.23;;
72904;SDS011;61048;52.162;4.516;2023-09-19T01:38:04;3.25;;;0.80;;
72904;SDS011;61048;52.162;4.516;2023-09-19T01:40:32;5.07;;;0.82;;
72904;SDS011;61048;52.162;4.516;2023-09-19T01:43:08;4.28;;;0.95;;
72904;SDS011;61048;52.162;4.516;2023-09-19T01:45:43;7.03;;;0.90;;
72904;SDS011;61048;52.162;4.516;2023-09-19T01:48:19;2.08;;;0.80;;
72904;SDS011;61048;52.162;4.516;2023-09-19T01:50:55;4.18;;;1.08;;
72904;SDS011;61048;52.162;4.516;2023-09-19T01:53:27;3.25;;;0.90;;
72904;SDS011;61048;52.162;4.516;2023-09-19T01:55:56;5.88;;;0.90;;
72904;SDS011;61048;52.162;4.516;2023-09-19T01:58:26;3.92;;;1.00;;
72904;SDS011;61048;52.162;4.516;2023-09-19T02:00:59;5.03;;;1.02;;
72904;SDS011;61048;52.162;4.516;2023-09-19T02:03:27;3.70;;;0.93;;
72904;SDS011;61048;52.162;4.516;2023-09-19T02:05:55;2.47;;;0.43;;
72904;SDS011;61048;52.162;4.516;2023-09-19T02:08:22;3.38;;;1.15;;
72904;SDS011;61048;52.162;4.516;2023-09-19T02:10:50;3.55;;;0.50;;
72904;SDS011;61048;52.162;4.516;2023-09-19T02:13:18;4.50;;;1.08;;
72904;SDS011;61048;52.162;4.516;2023-09-19T02:15:46;3.15;;;0.75;;
72904;SDS011;61048;52.162;4.516;2023-09-19T02:18:15;4.60;;;0.88;;
72904;SDS011;61048;52.162;4.516;2023-09-19T02:20:42;2.85;;;0.30;;
72904;SDS011;61048;52.162;4.516;2023-09-19T02:23:09;2.42;;;0.80;;
72904;SDS011;61048;52.162;4.516;2023-09-19T02:25:37;3.60;;;1.10;;
72904;SDS011;61048;52.162;4.516;2023-09-19T02:28:05;2.08;;;0.70;;
72904;SDS011;61048;52.162;4.516;2023-09-19T02:30:33;5.10;;;0.60;;
72904;SDS011;61048;52.162;4.516;2023-09-19T02:33:01;2.80;;;0.77;;
72904;SDS011;61048;52.162;4.516;2023-09-19T02:35:31;2.97;;;0.73;;
72904;SDS011;61048;52.162;4.516;2023-09-19T02:38:01;2.67;;;0.80;;
72904;SDS011;61048;52.162;4.516;2023-09-19T02:40:31;4.18;;;0.88;;
72904;SDS011;61048;52.162;4.516;2023-09-19T02:43:01;2.67;;;0.65;;
72904;SDS011;61048;52.162;4.516;2023-09-19T02:45:28;3.45;;;0.93;;
72904;SDS011;61048;52.162;4.516;2023-09-19T02:47:55;4.85;;;1.10;;
72904;SDS011;61048;52.162;4.516;2023-09-19T02:50:23;3.83;;;0.85;;
72904;SDS011;61048;52.162;4.516;2023-09-19T02:52:51;5.65;;;0.98;;
72904;SDS011;61048;52.162;4.516;2023-09-19T02:55:18;2.85;;;1.02;;
72904;SDS011;61048;52.162;4.516;2023-09-19T02:57:47;3.13;;;1.00;;
72904;SDS011;61048;52.162;4.516;2023-09-19T03:00:14;2.72;;;0.80;;
72904;SDS011;61048;52.162;4.516;2023-09-19T03:02:42;2.20;;;0.80;;
72904;SDS011;61048;52.162;4.516;2023-09-19T03:05:09;3.05;;;0.82;;
72904;SDS011;61048;52.162;4.516;2023-09-19T03:07:37;4.32;;;1.55;;
72904;SDS011;61048;52.162;4.516;2023-09-19T03:10:06;2.63;;;0.98;;
72904;SDS011;61048;52.162;4.516;2023-09-19T03:12:34;5.35;;;0.82;;
72904;SDS011;61048;52.162;4.516;2023-09-19T03:15:01;1.83;;;0.52;;
72904;SDS011;61048;52.162;4.516;2023-09-19T03:17:29;2.42;;;0.88;;
72904;SDS011;61048;52.162;4.516;2023-09-19T03:19:57;3.28;;;1.55;;
72904;SDS011;61048;52.162;4.516;2023-09-19T03:22:24;2.47;;;0.90;;
72904;SDS011;61048;52.162;4.516;2023-09-19T03:24:52;4.85;;;0.80;;
72904;SDS011;61048;52.162;4.516;2023-09-19T03:27:20;2.13;;;0.90;;
72904;SDS011;61048;52.162;4.516;2023-09-19T03:29:47;5.57;;;1.48;;
72904;SDS011;61048;52.162;4.516;2023-09-19T03:32:14;3.67;;;0.80;;
72904;SDS011;61048;52.162;4.516;2023-09-19T03:34:41;2.85;;;0.90;;
72904;SDS011;61048;52.162;4.516;2023-09-19T03:37:08;3.35;;;0.75;;
72904;SDS011;61048;52.162;4.516;2023-09-19T03:39:35;2.70;;;0.57;;
72904;SDS011;61048;52.162;4.516;2023-09-19T03:42:02;4.82;;;1.48;;
72904;SDS011;61048;52.162;4.516;2023-09-19T03:44:33;2.85;;;0.88;;
72904;SDS011;61048;52.162;4.516;2023-09-19T03:47:00;5.03;;;0.88;;
72904;SDS011;61048;52.162;4.516;2023-09-19T03:49:27;4.68;;;0.90;;
72904;SDS011;61048;52.162;4.516;2023-09-19T03:51:55;3.60;;;0.90;;
72904;SDS011;61048;52.162;4.516;2023-09-19T03:54:23;3.00;;;0.70;;
72904;SDS011;61048;52.162;4.516;2023-09-19T03:56:50;3.28;;;0.93;;
72904;SDS011;61048;52.162;4.516;2023-09-19T03:59:17;4.63;;;1.33;;
72904;SDS011;61048;52.162;4.516;2023-09-19T04:01:45;2.60;;;0.98;;
72904;SDS011;61048;52.162;4.516;2023-09-19T04:04:12;4.20;;;1.08;;
72904;SDS011;61048;52.162;4.516;2023-09-19T04:06:39;3.03;;;0.57;;
72904;SDS011;61048;52.162;4.516;2023-09-19T04:09:06;3.00;;;1.08;;
72904;SDS011;61048;52.162;4.516;2023-09-19T04:11:33;4.50;;;0.93;;
72904;SDS011;61048;52.162;4.516;2023-09-19T04:14:02;1.95;;;0.75;;
72904;SDS011;61048;52.162;4.516;2023-09-19T04:16:30;3.97;;;1.13;;
72904;SDS011;61048;52.162;4.516;2023-09-19T04:18:58;2.83;;;1.05;;
72904;SDS011;61048;52.162;4.516;2023-09-19T04:21:25;4.45;;;1.13;;
72904;SDS011;61048;52.162;4.516;2023-09-19T04:23:53;2.80;;;0.30;;
72904;SDS011;61048;52.162;4.516;2023-09-19T04:26:20;2.20;;;0.82;;
72904;SDS011;61048;52.162;4.516;2023-09-19T04:28:47;2.13;;;0.80;;
72904;SDS011;61048;52.162;4.516;2023-09-19T04:31:14;3.85;;;1.05;;
72904;SDS011;61048;52.162;4.516;2023-09-19T04:33:41;2.78;;;0.93;;
72904;SDS011;61048;52.162;4.516;2023-09-19T04:36:11;2.95;;;0.75;;
72904;SDS011;61048;52.162;4.516;2023-09-19T04:38:38;2.40;;;0.60;;
72904;SDS011;61048;52.162;4.516;2023-09-19T04:41:05;5.70;;;0.80;;
72904;SDS011;61048;52.162;4.516;2023-09-19T04:43:32;2.70;;;0.57;;
72904;SDS011;61048;52.162;4.516;2023-09-19T04:45:58;3.72;;;0.90;;
72904;SDS011;61048;52.162;4.516;2023-09-19T04:48:25;3.88;;;0.80;;
72904;SDS011;61048;52.162;4.516;2023-09-19T04:50:54;2.65;;;0.68;;
72904;SDS011;61048;52.162;4.516;2023-09-19T04:53:22;3.10;;;1.48;;
72904;SDS011;61048;52.162;4.516;2023-09-19T04:55:49;10.55;;;1.77;;
72904;SDS011;61048;52.162;4.516;2023-09-19T04:58:17;51.90;;;11.77;;
72904;SDS011;61048;52.162;4.516;2023-09-19T05:00:45;85.38;;;19.25;;
72904;SDS011;61048;52.162;4.516;2023-09-19T05:03:12;73.20;;;19.67;;
72904;SDS011;61048;52.162;4.516;2023-09-19T05:05:39;101.00;;;25.00;;
72904;SDS011;61048;52.162;4.516;2023-09-19T05:08:07;80.25;;;20.58;;
72904;SDS011;61048;52.162;4.516;2023-09-19T05:10:36;77.95;;;17.75;;
72904;SDS011;61048;52.162;4.516;2023-09-19T05:13:04;72.65;;;19.88;;
72904;SDS011;61048;52.162;4.516;2023-09-19T05:15:32;72.78;;;20.27;;
72904;SDS011;61048;52.162;4.516;2023-09-19T05:18:00;61.45;;;17.45;;
72904;SDS011;61048;52.162;4.516;2023-09-19T05:20:31;65.90;;;17.55;;
72904;SDS011;61048;52.162;4.516;2023-09-19T05:23:00;61.38;;;17.13;;
72904;SDS011;61048;52.162;4.516;2023-09-19T05:25:31;59.85;;;15.88;;
72904;SDS011;61048;52.162;4.516;2023-09-19T05:28:04;52.35;;;14.73;;
72904;SDS011;61048;52.162;4.516;2023-09-19T05:30:31;53.25;;;14.55;;
72904;SDS011;61048;52.162;4.516;2023-09-19T05:32:58;48.20;;;11.75;;
72904;SDS011;61048;52.162;4.516;2023-09-19T05:35:25;39.60;;;12.70;;
72904;SDS011;61048;52.162;4.516;2023-09-19T05:37:52;44.13;;;12.05;;
72904;SDS011;61048;52.162;4.516;2023-09-19T05:40:21;40.50;;;10.65;;
72904;SDS011;61048;52.162;4.516;2023-09-19T05:42:48;38.58;;;10.25;;
72904;SDS011;61048;52.162;4.516;2023-09-19T05:45:17;40.58;;;11.30;;
72904;SDS011;61048;52.162;4.516;2023-09-19T05:47:47;36.78;;;10.50;;
72904;SDS011;61048;52.162;4.516;2023-09-19T05:50:15;34.95;;;9.50;;
72904;SDS011;61048;52.162;4.516;2023-09-19T05:52:43;28.65;;;9.25;;
72904;SDS011;61048;52.162;4.516;2023-09-19T05:55:17;32.22;;;10.15;;
72904;SDS011;61048;52.162;4.516;2023-09-19T05:57:48;24.88;;;8.23;;
72904;SDS011;61048;52.162;4.516;2023-09-19T06:00:18;26.60;;;7.70;;
72904;SDS011;61048;52.162;4.516;2023-09-19T06:02:49;28.05;;;8.43;;
72904;SDS011;61048;52.162;4.516;2023-09-19T06:05:17;16.20;;;5.07;;
72904;SDS011;61048;52.162;4.516;2023-09-19T06:07:44;9.98;;;2.30;;
72904;SDS011;61048;52.162;4.516;2023-09-19T06:10:11;9.93;;;2.28;;
72904;SDS011;61048;52.162;4.516;2023-09-19T06:12:39;12.85;;;3.28;;
72904;SDS011;61048;52.162;4.516;2023-09-19T06:15:10;8.60;;;1.15;;
72904;SDS011;61048;52.162;4.516;2023-09-19T06:17:42;8.65;;;1.70;;
72904;SDS011;61048;52.162;4.516;2023-09-19T06:20:09;6.60;;;1.60;;
72904;SDS011;61048;52.162;4.516;2023-09-19T06:22:40;6.28;;;1.23;;
72904;SDS011;61048;52.162;4.516;2023-09-19T06:25:08;7.78;;;1.80;;
72904;SDS011;61048;52.162;4.516;2023-09-19T06:27:37;9.95;;;1.50;;
72904;SDS011;61048;52.162;4.516;2023-09-19T06:30:06;8.32;;;1.50;;
72904;SDS011;61048;52.162;4.516;2023-09-19T06:32:34;14.25;;;2.53;;
72904;SDS011;61048;52.162;4.516;2023-09-19T06:35:03;5.93;;;1.80;;
72904;SDS011;61048;52.162;4.516;2023-09-19T06:37:33;8.40;;;1.45;;
72904;SDS011;61048;52.162;4.516;2023-09-19T06:40:00;10.82;;;1.10;;
72904;SDS011;61048;52.162;4.516;2023-09-19T06:42:28;9.48;;;1.48;;
72904;SDS011;61048;52.162;4.516;2023-09-19T06:44:55;9.63;;;1.27;;
72904;SDS011;61048;52.162;4.516;2023-09-19T06:47:21;11.00;;;2.25;;
72904;SDS011;61048;52.162;4.516;2023-09-19T06:49:51;10.55;;;1.88;;
72904;SDS011;61048;52.162;4.516;2023-09-19T06:52:19;7.55;;;1.85;;
72904;SDS011;61048;52.162;4.516;2023-09-19T06:54:47;11.77;;;1.75;;
72904;SDS011;61048;52.162;4.516;2023-09-19T06:57:15;8.15;;;1.58;;
72904;SDS011;61048;52.162;4.516;2023-09-19T06:59:42;8.93;;;1.52;;
72904;SDS011;61048;52.162;4.516;2023-09-19T07:02:10;8.52;;;1.73;;
72904;SDS011;61048;52.162;4.516;2023-09-19T07:04:37;10.43;;;2.03;;
72904;SDS011;61048;52.162;4.516;2023-09-19T07:07:03;9.20;;;1.90;;
72904;SDS011;61048;52.162;4.516;2023-09-19T07:09:32;9.55;;;2.40;;
72904;SDS011;61048;52.162;4.516;2023-09-19T07:11:58;9.05;;;1.73;;
72904;SDS011;61048;52.162;4.516;2023-09-19T07:14:25;8.13;;;1.35;;
72904;SDS011;61048;52.162;4.516;2023-09-19T07:16:53;6.90;;;1.60;;
72904;SDS011;61048;52.162;4.516;2023-09-19T07:19:20;5.75;;;1.33;;
72904;SDS011;61048;52.162;4.516;2023-09-19T07:21:47;6.50;;;1.45;;
72904;SDS011;61048;52.162;4.516;2023-09-19T07:24:15;8.07;;;1.58;;
72904;SDS011;61048;52.162;4.516;2023-09-19T07:26:44;5.47;;;1.30;;
72904;SDS011;61048;52.162;4.516;2023-09-19T07:29:11;5.07;;;1.23;;
72904;SDS011;61048;52.162;4.516;2023-09-19T07:31:38;6.28;;;1.63;;
72904;SDS011;61048;52.162;4.516;2023-09-19T07:34:05;6.85;;;1.33;;
72904;SDS011;61048;52.162;4.516;2023-09-19T07:36:33;7.03;;;1.45;;
72904;SDS011;61048;52.162;4.516;2023-09-19T07:39:02;5.65;;;1.38;;
72904;SDS011;61048;52.162;4.516;2023-09-19T07:41:32;4.97;;;0.98;;
72904;SDS011;61048;52.162;4.516;2023-09-19T07:44:00;5.50;;;0.70;;
72904;SDS011;61048;52.162;4.516;2023-09-19T07:46:27;6.53;;;1.15;;
72904;SDS011;61048;52.162;4.516;2023-09-19T07:48:56;4.13;;;1.08;;
72904;SDS011;61048;52.162;4.516;2023-09-19T07:51:23;5.85;;;0.60;;
72904;SDS011;61048;52.162;4.516;2023-09-19T07:53:50;5.20;;;1.23;;
72904;SDS011;61048;52.162;4.516;2023-09-19T07:56:17;4.22;;;1.17;;
72904;SDS011;61048;52.162;4.516;2023-09-19T07:58:45;6.93;;;1.65;;
72904;SDS011;61048;52.162;4.516;2023-09-19T08:01:14;6.40;;;1.27;;
72904;SDS011;61048;52.162;4.516;2023-09-19T08:03:41;6.18;;;1.13;;
72904;SDS011;61048;52.162;4.516;2023-09-19T08:06:09;5.55;;;1.45;;
72904;SDS011;61048;52.162;4.516;2023-09-19T08:08:36;6.28;;;0.82;;
72904;SDS011;61048;52.162;4.516;2023-09-19T08:11:04;5.53;;;1.20;;
72904;SDS011;61048;52.162;4.516;2023-09-19T08:13:37;5.80;;;0.70;;
72904;SDS011;61048;52.162;4.516;2023-09-19T08:16:08;5.55;;;1.13;;
72904;SDS011;61048;52.162;4.516;2023-09-19T08:18:36;6.18;;;1.20;;
72904;SDS011;61048;52.162;4.516;2023-09-19T08:21:05;5.38;;;1.50;;
72904;SDS011;61048;52.162;4.516;2023-09-19T08:23:35;6.05;;;1.40;;
72904;SDS011;61048;52.162;4.516;2023-09-19T08:26:03;5.00;;;1.50;;
72904;SDS011;61048;52.162;4.516;2023-09-19T08:28:31;4.40;;;0.70;;
72904;SDS011;61048;52.162;4.516;2023-09-19T08:31:01;3.38;;;1.15;;
72904;SDS011;61048;52.162;4.516;2023-09-19T08:35:59;3.85;;;1.13;;
72904;SDS011;61048;52.162;4.516;2023-09-19T08:38:26;7.20;;;1.40;;
72904;SDS011;61048;52.162;4.516;2023-09-19T08:40:56;4.60;;;1.30;;
72904;SDS011;61048;52.162;4.516;2023-09-19T08:43:24;7.07;;;1.40;;
72904;SDS011;61048;52.162;4.516;2023-09-19T08:45:53;7.93;;;1.50;;
72904;SDS011;61048;52.162;4.516;2023-09-19T08:48:25;4.88;;;1.02;;
72904;SDS011;61048;52.162;4.516;2023-09-19T08:50:55;8.27;;;2.20;;
72904;SDS011;61048;52.162;4.516;2023-09-19T08:53:30;4.20;;;1.02;;
72904;SDS011;61048;52.162;4.516;2023-09-19T08:56:03;6.10;;;1.40;;
72904;SDS011;61048;52.162;4.516;2023-09-19T08:58:34;2.60;;;1.13;;
72904;SDS011;61048;52.162;4.516;2023-09-19T09:01:12;3.97;;;1.23;;
72904;SDS011;61048;52.162;4.516;2023-09-19T09:03:41;4.65;;;1.55;;
72904;SDS011;61048;52.162;4.516;2023-09-19T09:06:11;6.57;;;1.30;;
72904;SDS011;61048;52.162;4.516;2023-09-19T09:08:42;4.53;;;1.25;;
72904;SDS011;61048;52.162;4.516;2023-09-19T09:11:10;4.45;;;1.50;;
72904;SDS011;61048;52.162;4.516;2023-09-19T09:13:37;5.88;;;1.02;;
72904;SDS011;61048;52.162;4.516;2023-09-19T09:16:06;4.43;;;1.13;;
72904;SDS011;61048;52.162;4.516;2023-09-19T09:18:35;5.18;;;1.08;;
72904;SDS011;61048;52.162;4.516;2023-09-19T09:21:02;6.22;;;1.48;;
72904;SDS011;61048;52.162;4.516;2023-09-19T09:23:30;5.38;;;1.30;;
72904;SDS011;61048;52.162;4.516;2023-09-19T09:25:59;4.88;;;1.35;;
72904;SDS011;61048;52.162;4.516;2023-09-19T09:28:28;4.32;;;1.08;;
72904;SDS011;61048;52.162;4.516;2023-09-19T09:30:56;3.75;;;1.00;;
72904;SDS011;61048;52.162;4.516;2023-09-19T09:33:24;5.03;;;0.88;;
72904;SDS011;61048;52.162;4.516;2023-09-19T09:35:52;5.38;;;1.10;;
72904;SDS011;61048;52.162;4.516;2023-09-19T09:38:22;6.03;;;1.40;;
72904;SDS011;61048;52.162;4.516;2023-09-19T09:40:52;6.72;;;1.40;;
72904;SDS011;61048;52.162;4.516;2023-09-19T09:43:27;6.32;;;1.10;;
72904;SDS011;61048;52.162;4.516;2023-09-19T09:46:08;6.97;;;1.15;;
72904;SDS011;61048;52.162;4.516;2023-09-19T09:49:01;5.45;;;1.73;;
72904;SDS011;61048;52.162;4.516;2023-09-19T09:51:59;6.63;;;1.20;;
72904;SDS011;61048;52.162;4.516;2023-09-19T09:54:30;4.32;;;1.20;;
72904;SDS011;61048;52.162;4.516;2023-09-19T09:57:03;5.10;;;1.75;;
72904;SDS011;61048;52.162;4.516;2023-09-19T09:59:50;8.30;;;1.92;;
72904;SDS011;61048;52.162;4.516;2023-09-19T10:02:19;5.22;;;1.20;;
72904;SDS011;61048;52.162;4.516;2023-09-19T10:04:50;4.38;;;1.00;;
72904;SDS011;61048;52.162;4.516;2023-09-19T10:07:24;3.60;;;1.10;;
72904;SDS011;61048;52.162;4.516;2023-09-19T10:09:57;5.32;;;1.00;;
72904;SDS011;61048;52.162;4.516;2023-09-19T10:12:34;6.70;;;1.30;;
72904;SDS011;61048;52.162;4.516;2023-09-19T10:15:06;3.20;;;1.08;;
72904;SDS011;61048;52.162;4.516;2023-09-19T10:17:36;5.57;;;1.13;;
72904;SDS011;61048;52.162;4.516;2023-09-19T10:20:08;5.75;;;1.25;;
72904;SDS011;61048;52.162;4.516;2023-09-19T10:22:47;6.00;;;1.25;;
72904;SDS011;61048;52.162;4.516;2023-09-19T10:25:23;6.28;;;1.45;;
72904;SDS011;61048;52.162;4.516;2023-09-19T10:27:54;4.32;;;0.95;;
72904;SDS011;61048;52.162;4.516;2023-09-19T10:30:24;5.03;;;0.57;;
72904;SDS011;61048;52.162;4.516;2023-09-19T10:32:55;5.07;;;1.35;;
72904;SDS011;61048;52.162;4.516;2023-09-19T10:35:25;4.57;;;1.08;;
72904;SDS011;61048;52.162;4.516;2023-09-19T10:37:54;4.57;;;1.20;;
72904;SDS011;61048;52.162;4.516;2023-09-19T10:40:23;3.75;;;0.88;;
72904;SDS011;61048;52.162;4.516;2023-09-19T10:42:58;4.10;;;1.10;;
72904;SDS011;61048;52.162;4.516;2023-09-19T10:45:30;5.30;;;0.98;;
72904;SDS011;61048;52.162;4.516;2023-09-19T10:47:58;4.05;;;0.90;;
72904;SDS011;61048;52.162;4.516;2023-09-19T10:50:27;4.55;;;0.80;;
72904;SDS011;61048;52.162;4.516;2023-09-19T10:52:58;5.93;;;1.08;;
72904;SDS011;61048;52.162;4.516;2023-09-19T10:55:30;4.00;;;0.68;;
72904;SDS011;61048;52.162;4.516;2023-09-19T10:58:00;3.65;;;0.50;;
72904;SDS011;61048;52.162;4.516;2023-09-19T11:00:31;3.75;;;1.17;;
72904;SDS011;61048;52.162;4.516;2023-09-19T11:03:17;5.15;;;0.80;;
72904;SDS011;61048;52.162;4.516;2023-09-19T11:06:01;5.85;;;1.33;;
72904;SDS011;61048;52.162;4.516;2023-09-19T11:11:48;3.33;;;0.50;;
72904;SDS011;61048;52.162;4.516;2023-09-19T11:14:30;3.78;;;0.73;;
72904;SDS011;61048;52.162;4.516;2023-09-19T11:23:21;4.00;;;0.88;;
72904;SDS011;61048;52.162;4.516;2023-09-19T11:25:49;3.25;;;1.00;;
72904;SDS011;61048;52.162;4.516;2023-09-19T11:28:28;4.88;;;1.08;;
72904;SDS011;61048;52.162;4.516;2023-09-19T11:40:36;3.75;;;0.80;;
72904;SDS011;61048;52.162;4.516;2023-09-19T11:46:01;4.35;;;0.80;;
72904;SDS011;61048;52.162;4.516;2023-09-19T11:48:30;4.28;;;0.55;;
72904;SDS011;61048;52.162;4.516;2023-09-19T11:51:01;3.83;;;0.90;;
72904;SDS011;61048;52.162;4.516;2023-09-19T11:53:40;2.65;;;0.35;;
72904;SDS011;61048;52.162;4.516;2023-09-19T11:56:08;3.83;;;0.88;;
72904;SDS011;61048;52.162;4.516;2023-09-19T11:58:36;6.32;;;1.05;;
72904;SDS011;61048;52.162;4.516;2023-09-19T12:01:05;3.67;;;0.40;;
72904;SDS011;61048;52.162;4.516;2023-09-19T12:03:38;4.72;;;0.90;;
72904;SDS011;61048;52.162;4.516;2023-09-19T12:06:14;2.03;;;0.65;;
72904;SDS011;61048;52.162;4.516;2023-09-19T12:08:42;3.95;;;0.60;;
72904;SDS011;61048;52.162;4.516;2023-09-19T12:11:12;4.45;;;0.90;;
72904;SDS011;61048;52.162;4.516;2023-09-19T12:13:41;4.40;;;0.40;;
72904;SDS011;61048;52.162;4.516;2023-09-19T12:16:14;3.85;;;0.75;;
72904;SDS011;61048;52.162;4.516;2023-09-19T12:18:41;3.38;;;0.70;;
72904;SDS011;61048;52.162;4.516;2023-09-19T12:21:25;3.08;;;0.88;;
72904;SDS011;61048;52.162;4.516;2023-09-19T12:23:59;4.25;;;1.08;;
72904;SDS011;61048;52.162;4.516;2023-09-19T12:26:37;4.10;;;0.80;;
72904;SDS011;61048;52.162;4.516;2023-09-19T12:29:10;2.67;;;0.90;;
72904;SDS011;61048;52.162;4.516;2023-09-19T12:31:52;2.42;;;0.90;;
72904;SDS011;61048;52.162;4.516;2023-09-19T12:34:21;4.75;;;1.13;;
72904;SDS011;61048;52.162;4.516;2023-09-19T12:37:04;2.45;;;0.80;;
72904;SDS011;61048;52.162;4.516;2023-09-19T12:39:36;4.22;;;1.00;;
72904;SDS011;61048;52.162;4.516;2023-09-19T12:42:06;3.90;;;0.88;;
72904;SDS011;61048;52.162;4.516;2023-09-19T12:44:35;3.25;;;1.02;;
72904;SDS011;61048;52.162;4.516;2023-09-19T12:47:10;4.70;;;1.00;;
72904;SDS011;61048;52.162;4.516;2023-09-19T12:52:39;5.70;;;0.80;;
72904;SDS011;61048;52.162;4.516;2023-09-19T12:55:07;4.53;;;0.98;;
72904;SDS011;61048;52.162;4.516;2023-09-19T12:57:54;2.75;;;0.68;;
72904;SDS011;61048;52.162;4.516;2023-09-19T13:00:35;6.97;;;0.90;;
72904;SDS011;61048;52.162;4.516;2023-09-19T13:03:13;4.38;;;1.15;;
72904;SDS011;61048;52.162;4.516;2023-09-19T13:08:21;2.53;;;0.93;;
72904;SDS011;61048;52.162;4.516;2023-09-19T13:11:07;3.60;;;1.13;;
72904;SDS011;61048;52.162;4.516;2023-09-19T13:13:38;2.17;;;0.60;;
72904;SDS011;61048;52.162;4.516;2023-09-19T13:16:06;5.75;;;1.88;;
72904;SDS011;61048;52.162;4.516;2023-09-19T13:18:44;4.38;;;1.20;;
72904;SDS011;61048;52.162;4.516;2023-09-19T13:21:12;5.03;;;1.30;;
72904;SDS011;61048;52.162;4.516;2023-09-19T13:23:53;2.65;;;1.00;;
72904;SDS011;61048;52.162;4.516;2023-09-19T13:26:24;4.80;;;1.13;;
72904;SDS011;61048;52.162;4.516;2023-09-19T13:28:51;2.83;;;0.98;;
72904;SDS011;61048;52.162;4.516;2023-09-19T13:31:17;3.25;;;0.90;;
72904;SDS011;61048;52.162;4.516;2023-09-19T13:33:44;4.50;;;1.25;;
72904;SDS011;61048;52.162;4.516;2023-09-19T13:36:12;2.97;;;1.20;;
72904;SDS011;61048;52.162;4.516;2023-09-19T13:38:39;3.85;;;1.00;;
72904;SDS011;61048;52.162;4.516;2023-09-19T13:41:09;3.67;;;0.52;;
72904;SDS011;61048;52.162;4.516;2023-09-19T13:43:36;2.67;;;1.00;;
72904;SDS011;61048;52.162;4.516;2023-09-19T13:46:04;4.07;;;1.17;;
72904;SDS011;61048;52.162;4.516;2023-09-19T13:48:32;4.05;;;1.02;;
72904;SDS011;61048;52.162;4.516;2023-09-19T13:51:01;4.82;;;1.05;;
72904;SDS011;61048;52.162;4.516;2023-09-19T13:53:29;4.82;;;1.42;;
72904;SDS011;61048;52.162;4.516;2023-09-19T13:55:56;4.93;;;1.15;;
72904;SDS011;61048;52.162;4.516;2023-09-19T13:58:24;2.95;;;1.13;;
72904;SDS011;61048;52.162;4.516;2023-09-19T14:00:52;3.30;;;1.40;;
72904;SDS011;61048;52.162;4.516;2023-09-19T14:03:23;8.07;;;1.10;;
72904;SDS011;61048;52.162;4.516;2023-09-19T14:05:53;4.40;;;1.35;;
72904;SDS011;61048;52.162;4.516;2023-09-19T14:08:20;6.07;;;1.30;;
72904;SDS011;61048;52.162;4.516;2023-09-19T14:10:48;3.65;;;0.50;;
72904;SDS011;61048;52.162;4.516;2023-09-19T14:13:15;4.85;;;1.20;;
72904;SDS011;61048;52.162;4.516;2023-09-19T14:15:43;5.05;;;1.27;;
72904;SDS011;61048;52.162;4.516;2023-09-19T14:18:10;4.97;;;1.05;;
72904;SDS011;61048;52.162;4.516;2023-09-19T14:20:37;2.33;;;0.52;;
72904;SDS011;61048;52.162;4.516;2023-09-19T14:23:06;6.43;;;1.85;;
72904;SDS011;61048;52.162;4.516;2023-09-19T14:25:33;5.13;;;1.48;;
72904;SDS011;61048;52.162;4.516;2023-09-19T14:28:01;5.18;;;0.80;;
72904;SDS011;61048;52.162;4.516;2023-09-19T14:30:28;5.28;;;1.30;;
72904;SDS011;61048;52.162;4.516;2023-09-19T14:32:56;5.18;;;1.10;;
72904;SDS011;61048;52.162;4.516;2023-09-19T14:35:23;5.88;;;1.08;;
72904;SDS011;61048;52.162;4.516;2023-09-19T14:37:50;6.72;;;1.27;;
72904;SDS011;61048;52.162;4.516;2023-09-19T14:40:17;4.78;;;1.20;;
72904;SDS011;61048;52.162;4.516;2023-09-19T14:42:45;5.25;;;1.25;;
72904;SDS011;61048;52.162;4.516;2023-09-19T14:45:13;6.88;;;1.38;;
72904;SDS011;61048;52.162;4.516;2023-09-19T14:47:43;5.55;;;1.30;;
72904;SDS011;61048;52.162;4.516;2023-09-19T14:50:11;4.13;;;0.70;;
72904;SDS011;61048;52.162;4.516;2023-09-19T14:52:38;4.78;;;1.58;;
72904;SDS011;61048;52.162;4.516;2023-09-19T14:55:06;6.57;;;1.10;;
72904;SDS011;61048;52.162;4.516;2023-09-19T14:57:39;4.90;;;1.52;;
72904;SDS011;61048;52.162;4.516;2023-09-19T15:00:08;3.35;;;0.70;;
72904;SDS011;61048;52.162;4.516;2023-09-19T15:02:37;4.05;;;0.60;;
72904;SDS011;61048;52.162;4.516;2023-09-19T15:05:05;3.05;;;1.25;;
72904;SDS011;61048;52.162;4.516;2023-09-19T15:07:35;5.43;;;1.02;;
72904;SDS011;61048;52.162;4.516;2023-09-19T15:10:03;7.10;;;0.82;;
72904;SDS011;61048;52.162;4.516;2023-09-19T15:12:32;7.38;;;1.13;;
72904;SDS011;61048;52.162;4.516;2023-09-19T15:15:00;4.43;;;1.35;;
72904;SDS011;61048;52.162;4.516;2023-09-19T15:17:27;3.80;;;1.00;;
72904;SDS011;61048;52.162;4.516;2023-09-19T15:19:53;4.03;;;1.35;;
72904;SDS011;61048;52.162;4.516;2023-09-19T15:22:20;3.92;;;1.20;;
72904;SDS011;61048;52.162;4.516;2023-09-19T15:24:49;4.88;;;1.10;;
72904;SDS011;61048;52.162;4.516;2023-09-19T15:27:17;5.70;;;0.98;;
72904;SDS011;61048;52.162;4.516;2023-09-19T15:29:45;4.55;;;1.02;;
72904;SDS011;61048;52.162;4.516;2023-09-19T15:32:12;4.93;;;1.20;;
72904;SDS011;61048;52.162;4.516;2023-09-19T15:34:39;4.40;;;1.45;;
72904;SDS011;61048;52.162;4.516;2023-09-19T15:37:06;4.60;;;1.42;;
72904;SDS011;61048;52.162;4.516;2023-09-19T15:39:33;4.25;;;1.52;;